Time;durP1;ratioP1;P1;durP2;ratioP2;P2;SDS_P1;SDS_P2;PMS_P1;PMS_P2;Temp;Humidity;BMP_temperature;BMP_pressure;BME280_temperature;BME280_humidity;BME280_pressure;Samples;Min_cycle;Max_cycle;Signal;HPM_P1;HPM_P2
2022/06/09 00:01:55;;;;;;;6.20;1.20;;;;;;;16.41;75.66;99117.69;5005985;28;20088;-89
2022/06/09 00:04:35;;;;;;;4.93;1.63;;;;;;;16.43;76.47;99120.19;5021010;28;20022;-89
2022/06/09 00:07:09;;;;;;;4.68;1.50;;;;;;;16.48;76.36;99115.03;5006015;28;20025;-90
2022/06/09 00:09:42;;;;;;;4.93;1.58;;;;;;;16.47;75.55;99121.47;5008588;28;20022;-90
2022/06/09 00:12:08;;;;;;;4.15;1.38;;;;;;;16.53;75.85;99131.47;5022841;28;20026;-89
2022/06/09 00:14:35;;;;;;;4.88;1.70;;;;;;;16.46;76.26;99128.72;5009708;28;20041;-91
2022/06/09 00:17:00;;;;;;;3.72;1.30;;;;;;;16.44;76.13;99130.78;5022986;28;20412;-90
2022/06/09 00:19:26;;;;;;;4.82;1.40;;;;;;;16.42;76.30;99132.03;5020702;28;20034;-89
2022/06/09 00:21:51;;;;;;;4.32;1.58;;;;;;;16.41;77.04;99125.78;5007554;28;20025;-90
2022/06/09 00:24:17;;;;;;;5.70;1.52;;;;;;;16.40;76.60;99132.22;5026266;28;20117;-90
2022/06/09 00:26:43;;;;;;;5.05;1.48;;;;;;;16.45;76.38;99134.31;5007538;28;20068;-88
2022/06/09 00:29:08;;;;;;;4.78;1.40;;;;;;;16.43;76.68;99134.53;5022653;28;20040;-89
2022/06/09 00:31:34;;;;;;;4.97;1.42;;;;;;;16.36;77.13;99130.94;5025187;28;20028;-90
2022/06/09 00:33:59;;;;;;;5.72;1.45;;;;;;;16.38;76.48;99140.50;5006858;28;20025;-89
2022/06/09 00:36:25;;;;;;;4.30;1.48;;;;;;;16.44;76.61;99143.44;5019988;28;20033;-89
2022/06/09 00:38:50;;;;;;;4.47;1.30;;;;;;;16.35;76.60;99135.50;5023393;28;20022;-91
2022/06/09 00:41:16;;;;;;;4.40;1.30;;;;;;;16.36;76.65;99141.72;5011939;28;20084;-89
2022/06/09 00:43:42;;;;;;;5.80;1.58;;;;;;;16.40;76.89;99134.91;5008567;28;20625;-89
2022/06/09 00:46:10;;;;;;;4.28;1.50;;;;;;;16.42;nan;99140.13;5002407;28;20069;-90
2022/06/09 00:48:41;;;;;;;5.43;1.40;;;;;;;16.37;76.32;99146.09;5021820;28;20531;-90
2022/06/09 00:51:14;;;;;;;5.10;1.60;;;;;;;16.33;76.94;99134.88;5023289;28;20025;-91
2022/06/09 00:53:41;;;;;;;3.95;1.33;;;;;;;16.40;76.24;99142.19;5021097;28;20033;-90
2022/06/09 00:56:08;;;;;;;5.47;1.27;;;;;;;16.38;76.96;99148.59;5005413;28;20033;-88
2022/06/09 00:58:36;;;;;;;3.97;1.10;;;;;;;16.33;76.78;99151.06;5024841;28;20029;-90
2022/06/09 01:01:08;;;;;;;6.27;1.60;;;;;;;16.28;77.22;99149.97;5025483;28;20053;-90
2022/06/09 01:03:40;;;;;;;5.72;1.52;;;;;;;16.30;77.29;99153.31;5009116;28;20136;-90
2022/06/09 01:06:09;;;;;;;5.20;1.45;;;;;;;16.34;76.87;99141.94;5019887;28;20017;-90
2022/06/09 01:08:39;;;;;;;7.55;1.52;;;;;;;16.32;76.64;99151.25;5006559;28;20080;-91
2022/06/09 01:11:05;;;;;;;5.97;1.30;;;;;;;16.29;77.45;99149.78;5016464;28;20079;-90
2022/06/09 01:13:31;;;;;;;5.65;1.42;;;;;;;16.28;76.98;99155.38;5002259;28;20113;-90
2022/06/09 01:16:07;;;;;;;7.63;1.65;;;;;;;16.29;76.60;99157.88;5002497;28;20030;-91
2022/06/09 01:19:10;;;;;;;7.50;1.70;;;;;;;16.29;77.96;99162.44;5018345;28;20026;-90
2022/06/09 01:22:02;;;;;;;6.68;1.83;;;;;;;16.33;78.32;99167.25;5018455;28;20030;-91
2022/06/09 01:24:46;;;;;;;9.25;1.73;;;;;;;16.34;77.56;99168.09;5006938;28;20021;-91
2022/06/09 01:27:16;;;;;;;9.05;1.77;;;;;;;16.37;77.42;99181.19;5024731;28;20128;-91
2022/06/09 01:29:46;;;;;;;6.05;1.70;;;;;;;16.31;77.56;99184.66;5004439;28;20112;-91
2022/06/09 01:32:19;;;;;;;5.95;1.80;;;;;;;16.24;77.84;99184.59;5008983;28;20037;-91
2022/06/09 01:35:04;;;;;;;5.43;1.60;;;;;;;16.29;77.10;99186.72;5005018;28;20033;-91
2022/06/09 01:37:33;;;;;;;6.45;1.95;;;;;;;16.31;77.91;99185.50;5028235;28;20029;-91
2022/06/09 01:40:01;;;;;;;8.73;2.17;;;;;;;16.32;77.62;99192.56;5022147;28;20029;-91
2022/06/09 01:42:45;;;;;;;7.35;2.15;;;;;;;16.32;77.45;99186.31;5004861;28;20418;-89
2022/06/09 01:45:21;;;;;;;8.65;2.28;;;;;;;16.28;78.68;99195.84;5022854;28;20464;-91
2022/06/09 01:48:17;;;;;;;10.25;2.35;;;;;;;16.25;78.34;99196.22;5017868;28;20488;-90
2022/06/09 01:50:51;;;;;;;6.32;1.75;;;;;;;16.27;77.78;99192.31;5024310;28;20093;-91
2022/06/09 01:53:19;;;;;;;6.60;2.20;;;;;;;16.26;78.62;99200.59;5019302;28;20037;-91
2022/06/09 01:55:48;;;;;;;8.88;2.55;;;;;;;16.21;78.35;99201.19;5020673;28;20384;-91
2022/06/09 01:58:16;;;;;;;8.15;2.35;;;;;;;16.19;79.10;99211.31;5025030;28;20026;-91
2022/06/09 02:00:42;;;;;;;7.88;2.30;;;;;;;16.25;78.27;99204.31;5003951;28;20033;-91
2022/06/09 02:03:17;;;;;;;7.80;2.05;;;;;;;16.22;77.88;99207.41;5010360;28;20380;-91
2022/06/09 02:05:47;;;;;;;5.95;1.60;;;;;;;16.29;78.55;99216.41;5004190;28;20037;-91
2022/06/09 02:08:15;;;;;;;9.07;2.50;;;;;;;16.27;78.70;99211.19;5005393;28;20025;-91
2022/06/09 02:10:46;;;;;;;7.43;2.23;;;;;;;16.24;78.50;99218.84;5002489;28;20026;-91
2022/06/09 02:13:16;;;;;;;10.82;2.17;;;;;;;16.23;78.10;99215.31;5003074;28;20530;-91
2022/06/09 02:15:45;;;;;;;8.02;2.25;;;;;;;16.24;78.79;99224.25;5021415;28;20037;-92
2022/06/09 02:18:16;;;;;;;9.85;2.20;;;;;;;16.20;78.07;99225.66;5010078;28;20033;-91
2022/06/09 02:20:44;;;;;;;8.27;2.45;;;;;;;16.18;78.82;99225.00;4995157;28;20032;-91
2022/06/09 02:23:11;;;;;;;8.00;1.85;;;;;;;16.15;78.55;99223.53;5017140;28;20029;-91
2022/06/09 02:25:37;;;;;;;9.27;2.40;;;;;;;16.15;78.42;99220.84;4999117;28;20383;-91
2022/06/09 02:28:03;;;;;;;7.80;2.47;;;;;;;16.11;78.97;99224.94;5005338;28;20037;-92
2022/06/09 02:30:29;;;;;;;11.63;2.35;;;;;;;16.12;78.90;99232.00;5022447;28;20526;-91
2022/06/09 02:32:54;;;;;;;9.57;2.72;;;;;;;16.09;78.66;99224.31;5004199;28;20025;-91
2022/06/09 02:35:19;;;;;;;7.60;2.65;;;;;;;16.13;78.99;99232.84;5045620;28;20026;-91
2022/06/09 02:37:45;;;;;;;7.28;2.20;;;;;;;16.16;79.04;99229.75;5022700;28;20028;-91
2022/06/09 02:40:11;;;;;;;6.35;2.22;;;;;;;16.14;79.19;99234.50;5028710;28;20033;-91
2022/06/09 02:42:36;;;;;;;7.07;2.30;;;;;;;16.13;78.90;99230.16;5004396;28;20376;-91
2022/06/09 02:45:03;;;;;;;9.50;2.80;;;;;;;16.09;78.68;99228.88;5025881;28;20095;-92
2022/06/09 02:47:28;;;;;;;8.23;2.40;;;;;;;16.09;78.77;99239.66;5009428;28;20041;-91
2022/06/09 02:49:53;;;;;;;8.18;2.65;;;;;;;16.05;78.94;99234.59;5024112;28;20787;-92
2022/06/09 02:52:19;;;;;;;11.05;2.47;;;;;;;16.06;79.58;99238.13;5000607;28;20061;-91
2022/06/09 02:54:44;;;;;;;8.57;2.50;;;;;;;16.05;78.83;99233.78;5007472;28;20467;-91
2022/06/09 02:57:09;;;;;;;11.55;2.55;;;;;;;16.05;79.01;99239.16;5012494;28;20041;-91
2022/06/09 02:59:35;;;;;;;7.10;2.40;;;;;;;16.03;79.44;99231.28;5024810;28;20049;-92
2022/06/09 03:02:01;;;;;;;8.60;2.60;;;;;;;16.00;79.61;99237.03;5008430;28;20080;-89
2022/06/09 03:04:27;;;;;;;9.13;2.65;;;;;;;15.99;79.05;99238.06;5017903;28;20026;-91
2022/06/09 03:06:52;;;;;;;10.02;2.75;;;;;;;16.08;79.66;99246.03;5015073;28;20030;-91
2022/06/09 03:09:17;;;;;;;10.68;2.97;;;;;;;16.03;79.15;99246.63;5031336;28;20053;-90
2022/06/09 03:11:42;;;;;;;8.60;2.33;;;;;;;16.03;79.52;99252.00;5003361;28;20029;-92
2022/06/09 03:14:10;;;;;;;7.53;2.55;;;;;;;16.01;79.24;99249.50;5019920;28;20026;-92
2022/06/09 03:16:36;;;;;;;10.60;2.92;;;;;;;15.99;79.11;99248.03;5005685;28;20022;-91
2022/06/09 03:19:01;;;;;;;9.48;3.00;;;;;;;15.97;79.52;99250.91;5027216;28;20031;-92
2022/06/09 03:21:26;;;;;;;10.50;3.10;;;;;;;16.01;79.70;99260.28;5012058;28;20069;-92
2022/06/09 03:23:52;;;;;;;10.68;3.38;;;;;;;16.02;78.91;99261.97;5020965;28;20124;-91
2022/06/09 03:26:17;;;;;;;9.25;3.30;;;;;;;16.05;78.64;99264.28;4998832;28;20037;-91
2022/06/09 03:28:42;;;;;;;12.43;3.03;;;;;;;16.08;79.17;99259.53;5024307;28;20091;-91
2022/06/09 03:31:08;;;;;;;11.43;3.45;;;;;;;16.05;79.10;99264.28;5014378;28;20032;-90
2022/06/09 03:33:33;;;;;;;8.10;2.90;;;;;;;16.09;79.17;99275.56;5009085;28;20032;-91
2022/06/09 03:36:00;;;;;;;9.45;3.03;;;;;;;16.06;79.52;99273.22;5006610;28;20025;-90
2022/06/09 03:38:25;;;;;;;7.82;3.20;;;;;;;16.08;79.94;99281.09;5016478;28;20030;-91
2022/06/09 03:40:51;;;;;;;10.32;3.20;;;;;;;16.05;78.91;99277.75;5000725;28;20483;-92
2022/06/09 03:43:16;;;;;;;9.75;3.58;;;;;;;16.06;79.81;99281.28;5023753;28;20437;-89
2022/06/09 03:45:41;;;;;;;12.38;3.95;;;;;;;16.02;79.78;99286.25;5022674;28;20560;-90
2022/06/09 03:48:07;;;;;;;11.15;3.45;;;;;;;16.08;79.21;99287.34;5005473;28;20022;-92
2022/06/09 03:50:33;;;;;;;10.50;3.45;;;;;;;16.05;79.42;99287.72;5018976;28;20026;-91
2022/06/09 03:52:59;;;;;;;11.93;3.30;;;;;;;16.05;79.35;99295.81;5032392;28;20033;-92
2022/06/09 03:55:25;;;;;;;8.52;3.72;;;;;;;16.05;79.81;99287.72;5004800;28;20030;-92
2022/06/09 03:57:51;;;;;;;11.43;3.55;;;;;;;16.05;79.78;99298.50;5013072;28;20033;-92
2022/06/09 04:00:20;;;;;;;11.18;3.63;;;;;;;16.09;79.56;99294.44;5013820;28;20109;-92
2022/06/09 04:02:46;;;;;;;9.15;3.22;;;;;;;16.13;80.01;99305.69;5027028;28;20032;-94
2022/06/09 04:05:13;;;;;;;9.88;3.60;;;;;;;16.08;79.47;99302.69;5016283;28;20021;-94
2022/06/09 04:07:39;;;;;;;11.98;3.53;;;;;;;16.08;80.17;99305.38;5016804;28;20103;-93
2022/06/09 04:10:05;;;;;;;14.38;4.55;;;;;;;16.03;79.58;99309.50;5006309;28;20026;-93
2022/06/09 04:12:30;;;;;;;10.07;3.88;;;;;;;16.02;80.28;99309.69;5012268;28;20121;-93
2022/06/09 04:14:56;;;;;;;8.90;3.72;;;;;;;16.03;79.37;99316.75;5010916;28;20061;-94
2022/06/09 04:17:21;;;;;;;12.07;3.95;;;;;;;16.04;80.17;99311.16;5014724;28;20022;-93
2022/06/09 04:19:46;;;;;;;8.55;4.00;;;;;;;16.05;79.60;99303.91;5027762;28;20022;-93
2022/06/09 04:22:12;;;;;;;9.50;3.70;;;;;;;16.09;80.08;99304.38;5027165;28;20541;-94
2022/06/09 04:24:38;;;;;;;11.20;4.10;;;;;;;16.10;79.97;99308.75;5023853;28;20468;-94
2022/06/09 04:27:03;;;;;;;10.45;3.75;;;;;;;16.03;79.52;99309.50;5013011;28;20061;-93
2022/06/09 04:29:29;;;;;;;10.13;3.85;;;;;;;16.00;79.37;99317.97;5009004;28;20053;-94
2022/06/09 04:31:54;;;;;;;9.55;3.83;;;;;;;16.06;80.27;99317.19;5008448;28;20112;-94
2022/06/09 04:34:19;;;;;;;9.95;3.80;;;;;;;16.07;80.04;99315.34;5012822;28;20018;-94
2022/06/09 04:36:45;;;;;;;10.80;3.90;;;;;;;16.00;79.94;99322.50;5012605;28;20477;-94
2022/06/09 04:39:11;;;;;;;9.98;3.83;;;;;;;16.01;79.63;99329.59;5024740;28;20076;-93
2022/06/09 04:41:37;;;;;;;9.82;3.70;;;;;;;16.04;80.44;99330.03;5018581;28;20030;-94
2022/06/09 04:44:03;;;;;;;11.18;3.88;;;;;;;16.03;79.90;99331.06;5030009;28;20538;-94
2022/06/09 04:46:28;;;;;;;9.65;3.58;;;;;;;16.05;80.10;99329.00;5034948;28;20045;-94
2022/06/09 04:48:54;;;;;;;9.93;3.58;;;;;;;16.06;80.20;99340.63;5006522;28;20017;-94
2022/06/09 04:51:20;;;;;;;11.75;3.75;;;;;;;16.04;79.49;99340.00;5011079;28;20368;-94
2022/06/09 04:53:47;;;;;;;10.70;3.78;;;;;;;16.06;79.78;99337.94;5020002;28;20037;-93
2022/06/09 04:56:14;;;;;;;8.52;3.53;;;;;;;16.06;80.15;99340.63;5026340;28;20026;-94
2022/06/09 04:58:40;;;;;;;9.25;3.55;;;;;;;16.02;79.80;99350.13;4997308;28;20026;-94
2022/06/09 05:01:06;;;;;;;11.20;3.60;;;;;;;16.06;80.53;99356.81;5028122;28;20095;-95
2022/06/09 05:03:32;;;;;;;8.93;3.47;;;;;;;16.07;80.47;99361.19;5022880;28;20035;-94
2022/06/09 05:05:58;;;;;;;10.27;3.40;;;;;;;16.06;79.76;99360.34;5015842;28;20463;-95
2022/06/09 05:08:24;;;;;;;10.25;3.88;;;;;;;16.08;79.85;99365.56;5019507;28;20349;-95
2022/06/09 05:10:49;;;;;;;9.20;3.55;;;;;;;16.10;80.31;99360.84;4996394;28;20113;-94
2022/06/09 05:13:15;;;;;;;9.30;3.22;;;;;;;16.10;80.14;99362.72;5014255;28;20026;-95
2022/06/09 05:15:53;;;;;;;13.85;3.65;;;;;;;16.14;79.69;99370.25;5018950;28;20549;-94
2022/06/09 05:18:20;;;;;;;13.47;3.63;;;;;;;16.14;80.21;99364.84;5019180;28;20056;-93
2022/06/09 05:20:45;;;;;;;9.95;3.70;;;;;;;16.11;80.32;99365.22;5002919;28;20281;-94
2022/06/09 05:23:11;;;;;;;7.57;3.50;;;;;;;16.06;80.24;99376.53;4999212;28;20072;-95
2022/06/09 05:25:36;;;;;;;9.38;3.35;;;;;;;16.15;80.44;99381.88;5020665;28;20029;-95
2022/06/09 05:28:02;;;;;;;11.70;3.90;;;;;;;16.13;80.37;99382.06;5008282;28;20081;-92
2022/06/09 05:30:27;;;;;;;10.07;3.88;;;;;;;16.15;80.25;99389.97;5019166;28;20029;-94
2022/06/09 05:32:53;;;;;;;11.23;3.22;;;;;;;16.17;80.97;99398.69;5018722;28;20029;-93
2022/06/09 05:35:19;;;;;;;9.10;3.38;;;;;;;16.16;79.68;99397.88;5018672;28;20024;-94
2022/06/09 05:46:47;;;;;;;5.97;3.03;;;;;;;16.20;80.30;99411.81;5025185;28;20061;-96
2022/06/09 05:49:13;;;;;;;10.98;3.70;;;;;;;16.19;80.02;99415.53;5000652;28;20392;-95
2022/06/09 05:51:38;;;;;;;11.43;3.90;;;;;;;16.18;79.65;99417.41;5017008;28;20029;-95
2022/06/09 05:54:04;;;;;;;6.30;3.08;;;;;;;16.22;79.69;99421.41;5004225;28;20042;-93
2022/06/09 05:56:32;;;;;;;10.63;3.63;;;;;;;16.22;80.55;99428.66;4999019;28;20030;-94
2022/06/09 05:59:00;;;;;;;8.95;3.40;;;;;;;16.22;80.31;99425.94;4998989;28;20126;-96
2022/06/09 06:01:25;;;;;;;8.48;3.40;;;;;;;16.20;80.11;99428.84;4999146;28;20046;-96
2022/06/09 06:03:50;;;;;;;7.47;2.78;;;;;;;16.17;80.09;99434.63;5015162;28;20026;-94
2022/06/09 06:06:34;;;;;;;8.95;3.42;;;;;;;16.15;80.01;99444.75;5015029;28;20022;-96
2022/06/09 06:09:10;;;;;;;7.55;3.08;;;;;;;16.20;79.55;99445.03;5003409;28;20113;-96
2022/06/09 06:11:37;;;;;;;11.55;3.55;;;;;;;16.16;79.22;99445.59;5018629;28;20032;-96
2022/06/09 06:14:03;;;;;;;8.55;2.95;;;;;;;16.18;80.11;99451.63;5034988;28;20108;-96
2022/06/09 06:16:29;;;;;;;9.80;3.75;;;;;;;16.16;79.66;99454.53;5018171;28;20483;-95
2022/06/09 06:18:54;;;;;;;8.10;3.03;;;;;;;16.14;79.25;99456.56;5008356;28;20118;-93
2022/06/09 06:21:20;;;;;;;13.82;4.00;;;;;;;16.18;80.47;99457.88;5014619;28;20472;-90
2022/06/09 06:23:46;;;;;;;8.73;3.50;;;;;;;16.14;80.01;99470.06;5014709;28;20109;-95
2022/06/09 06:26:14;;;;;;;10.77;3.20;;;;;;;16.12;79.74;99472.09;4998376;28;20022;-93
2022/06/09 06:28:39;;;;;;;10.13;3.13;;;;;;;16.17;80.51;99468.84;5014948;28;20029;-94
2022/06/09 06:31:05;;;;;;;9.70;3.42;;;;;;;16.19;80.64;99474.91;4998259;28;20034;-95
2022/06/09 06:33:30;;;;;;;12.00;3.53;;;;;;;16.18;79.57;99470.53;4998679;28;20431;-95
2022/06/09 06:35:56;;;;;;;11.70;3.58;;;;;;;16.22;80.20;99471.81;4998425;28;20388;-95
2022/06/09 06:38:22;;;;;;;9.07;3.25;;;;;;;16.21;79.15;99476.38;5014869;28;20029;-93
2022/06/09 06:40:48;;;;;;;9.68;3.40;;;;;;;16.19;80.04;99473.03;4999699;28;20030;-93
2022/06/09 06:43:13;;;;;;;12.05;3.65;;;;;;;16.23;79.60;99477.03;5014820;28;20033;-95
2022/06/09 06:45:39;;;;;;;8.95;3.63;;;;;;;16.18;79.46;99481.31;5015174;28;20021;-94
2022/06/09 06:48:05;;;;;;;8.38;3.50;;;;;;;16.19;80.06;99489.22;4999127;28;20026;-94
2022/06/09 07:00:38;;;;;;;8.98;3.50;;;;;;;16.25;79.46;99515.47;5015630;28;20045;-89
2022/06/09 07:03:04;;;;;;;10.82;3.33;;;;;;;16.28;79.06;99511.56;5022629;28;20029;-88
2022/06/09 07:05:29;;;;;;;7.65;3.10;;;;;;;16.30;79.76;99506.81;5002603;28;20045;-91
2022/06/09 07:07:56;;;;;;;12.18;3.75;;;;;;;16.31;79.61;99519.28;4999069;28;20424;-89
2022/06/09 07:10:25;;;;;;;8.15;3.15;;;;;;;16.34;79.70;99525.13;5022171;28;20125;-90
2022/06/09 07:12:50;;;;;;;10.45;4.20;;;;;;;16.33;79.10;99520.75;5019026;28;20033;-91
2022/06/09 07:15:16;;;;;;;6.93;3.30;;;;;;;16.33;79.41;99526.16;5503434;22;20056;-91
2022/06/09 07:17:42;;;;;;;11.35;3.88;;;;;;;16.27;78.77;99531.47;5038798;28;20482;-93
2022/06/09 07:20:09;;;;;;;9.43;3.60;;;;;;;16.24;78.80;99532.66;5026692;28;20051;-89
2022/06/09 07:22:35;;;;;;;9.60;4.05;;;;;;;16.28;79.02;99538.53;5042926;28;20028;-92
2022/06/09 07:25:00;;;;;;;7.50;4.18;;;;;;;16.30;79.49;99536.50;5039379;28;20241;-91
2022/06/09 07:27:26;;;;;;;8.00;3.88;;;;;;;16.33;78.97;99544.22;5040643;28;20903;-90
2022/06/09 07:29:52;;;;;;;9.75;3.88;;;;;;;16.34;79.33;99538.63;5023241;28;20029;-88
2022/06/09 07:32:18;;;;;;;9.40;3.42;;;;;;;16.35;79.59;99548.41;5032752;28;20433;-92
2022/06/09 07:34:43;;;;;;;8.20;3.72;;;;;;;16.37;79.20;99553.63;5025491;28;20024;-93
2022/06/09 07:37:16;;;;;;;6.50;3.50;;;;;;;16.38;80.03;99552.59;5023503;28;20056;-90
2022/06/09 07:39:42;;;;;;;9.35;3.50;;;;;;;16.38;79.55;99547.19;5031973;28;20059;-93
2022/06/09 07:42:07;;;;;;;4.97;2.85;;;;;;;16.40;79.73;99555.09;5048136;28;20072;-89
2022/06/09 07:44:33;;;;;;;7.25;3.20;;;;;;;16.41;80.25;99552.22;5038154;28;20033;-89
2022/06/09 07:46:58;;;;;;;11.07;3.65;;;;;;;16.38;79.72;99560.69;5014672;28;20386;-91
2022/06/09 07:49:25;;;;;;;7.88;3.60;;;;;;;16.44;80.00;99565.34;5031054;28;20144;-92
2022/06/09 07:51:50;;;;;;;7.30;3.03;;;;;;;16.48;79.59;99563.13;5014378;28;20025;-92
2022/06/09 07:54:16;;;;;;;10.20;3.72;;;;;;;16.50;79.98;99567.31;5014563;28;20028;-93
2022/06/09 07:56:42;;;;;;;9.75;3.38;;;;;;;16.50;79.91;99559.19;5028786;28;20055;-91
2022/06/09 07:59:07;;;;;;;9.98;3.60;;;;;;;16.53;79.69;99568.78;5014391;28;20029;-92
2022/06/09 08:01:33;;;;;;;8.57;2.97;;;;;;;16.55;79.78;99566.75;5030611;28;20057;-93
2022/06/09 08:03:59;;;;;;;8.80;3.35;;;;;;;16.60;79.49;99580.53;5015178;28;20102;-92
2022/06/09 08:06:24;;;;;;;11.25;3.88;;;;;;;16.59;79.75;99571.63;5030074;28;20024;-91
2022/06/09 08:08:51;;;;;;;6.60;3.28;;;;;;;16.61;79.27;99566.88;5035860;28;20021;-93
2022/06/09 08:11:17;;;;;;;9.52;3.92;;;;;;;16.61;79.47;99579.53;5009669;28;20036;-91
2022/06/09 08:13:42;;;;;;;6.57;3.38;;;;;;;16.64;79.75;99581.84;5014559;28;20029;-90
2022/06/09 08:16:08;;;;;;;9.50;3.25;;;;;;;16.64;79.53;99585.38;5019398;28;20072;-91
2022/06/09 08:18:34;;;;;;;11.63;4.03;;;;;;;16.68;79.81;99592.13;5035689;28;20044;-93
2022/06/09 08:20:59;;;;;;;9.18;3.70;;;;;;;16.66;79.48;99598.72;5034989;28;20025;-90
2022/06/09 08:23:26;;;;;;;8.82;3.90;;;;;;;16.65;79.32;99608.69;5019422;28;20083;-92
2022/06/09 08:25:54;;;;;;;8.65;3.63;;;;;;;16.67;79.42;99603.94;5037294;28;20032;-93
2022/06/09 08:28:20;;;;;;;9.05;3.83;;;;;;;16.70;79.44;99610.00;5027172;28;20018;-90
2022/06/09 08:30:49;;;;;;;7.07;3.47;;;;;;;16.71;79.83;99606.28;5034283;28;20236;-92
2022/06/09 08:33:14;;;;;;;8.13;3.30;;;;;;;16.73;79.37;99610.47;5023839;28;20095;-88
2022/06/09 08:35:40;;;;;;;6.93;3.47;;;;;;;16.76;79.26;99606.56;5018212;28;20566;-91
2022/06/09 08:38:07;;;;;;;6.90;3.13;;;;;;;16.81;79.25;99618.47;5033272;28;20034;-88
2022/06/09 08:40:54;;;;;;;7.32;3.17;;;;;;;16.91;79.59;99624.44;5037159;28;20036;-94
2022/06/09 08:43:56;;;;;;;6.63;3.28;;;;;;;16.93;79.92;99627.78;5030553;28;20018;-89
2022/06/09 08:46:27;;;;;;;6.25;3.17;;;;;;;16.96;78.97;99637.38;5034540;28;20032;-93
2022/06/09 08:48:55;;;;;;;12.05;3.53;;;;;;;16.89;78.59;99641.84;5035848;28;20025;-89
2022/06/09 08:51:37;;;;;;;6.97;2.85;;;;;;;16.87;78.72;99649.28;5033075;28;20021;-89
2022/06/09 08:54:09;;;;;;;5.72;2.97;;;;;;;16.84;79.16;99650.50;5017497;28;20037;-88
2022/06/09 08:56:34;;;;;;;6.25;2.40;;;;;;;16.84;78.81;99650.50;5010407;28;20467;-88
2022/06/09 08:59:13;;;;;;;6.40;2.85;;;;;;;16.86;78.75;99655.72;5033481;28;20098;-88
2022/06/09 09:01:48;;;;;;;6.65;2.90;;;;;;;16.87;78.56;99657.41;5017090;28;20027;-89
2022/06/09 09:04:39;;;;;;;11.05;3.63;;;;;;;16.87;79.44;99654.69;5033502;28;20059;-89
2022/06/09 09:07:25;;;;;;;7.68;2.83;;;;;;;16.94;79.26;99656.47;5010269;28;20454;-88
2022/06/09 09:09:52;;;;;;;6.63;2.60;;;;;;;17.02;79.23;99649.28;5009605;28;20056;-89
2022/06/09 09:12:44;;;;;;;7.38;3.00;;;;;;;17.06;79.08;99661.44;5033288;28;20021;-90
2022/06/09 09:15:28;;;;;;;8.82;3.60;;;;;;;17.07;79.25;99661.25;5028839;28;20037;-92
2022/06/09 09:18:03;;;;;;;11.63;4.03;;;;;;;17.09;78.89;99667.31;5013555;28;20025;-93
2022/06/09 09:20:36;;;;;;;8.73;3.50;;;;;;;17.03;78.99;99662.66;5021523;28;20056;-92
2022/06/09 09:23:01;;;;;;;9.07;3.83;;;;;;;16.99;78.35;99672.13;5030936;28;20468;-96
2022/06/09 09:25:37;;;;;;;10.07;4.05;;;;;;;16.97;79.25;99674.16;5037264;28;20044;-91
2022/06/09 09:28:05;;;;;;;9.77;4.18;;;;;;;16.96;79.16;99678.72;5017530;28;20056;-94
2022/06/09 09:30:36;;;;;;;9.50;4.18;;;;;;;17.00;79.72;99673.78;5048962;28;20463;-90
2022/06/09 09:33:01;;;;;;;10.23;3.95;;;;;;;17.05;79.78;99678.66;5035206;28;20476;-88
2022/06/09 09:35:41;;;;;;;7.82;4.28;;;;;;;17.05;79.31;99676.81;5021098;28;20036;-96
2022/06/09 09:38:08;;;;;;;9.38;4.50;;;;;;;17.07;79.20;99688.25;5035359;28;20034;-87
2022/06/09 09:40:42;;;;;;;9.15;4.07;;;;;;;17.09;79.02;99685.38;5034152;28;20113;-90
2022/06/09 09:43:11;;;;;;;7.10;3.65;;;;;;;17.12;79.05;99687.69;5019767;28;20380;-85
2022/06/09 09:45:42;;;;;;;10.30;4.32;;;;;;;17.12;78.51;99691.25;5017660;28;20041;-87
2022/06/09 09:48:17;;;;;;;9.43;4.57;;;;;;;17.11;78.57;99686.88;5013325;28;20037;-87
2022/06/09 09:50:49;;;;;;;8.48;4.10;;;;;;;17.12;78.51;99690.41;5052739;28;20368;-89
2022/06/09 09:53:17;;;;;;;9.93;4.05;;;;;;;17.11;79.16;99694.13;5033664;28;20468;-90
2022/06/09 09:55:59;;;;;;;7.60;3.85;;;;;;;17.13;78.12;99692.91;5037591;28;20029;-86
2022/06/09 09:58:39;;;;;;;9.18;4.43;;;;;;;17.15;78.32;99704.38;5051774;28;20042;-86
2022/06/09 10:01:22;;;;;;;9.23;4.00;;;;;;;17.20;78.55;99704.66;5037028;28;20033;-95
2022/06/09 10:09:37;;;;;;;8.60;4.45;;;;;;;17.24;78.58;99705.97;5029255;28;20053;-87
2022/06/09 10:12:30;;;;;;;10.20;3.88;;;;;;;17.25;78.58;99714.91;5007722;28;20615;-90
2022/06/09 10:15:01;;;;;;;9.57;4.85;;;;;;;17.23;78.84;99711.56;5032484;28;20107;-86
2022/06/09 10:17:51;;;;;;;6.25;3.42;;;;;;;17.27;79.28;99721.81;5015932;28;20479;-86
2022/06/09 10:20:27;;;;;;;8.45;3.70;;;;;;;17.31;79.59;99728.50;5048369;28;20045;-95
2022/06/09 10:22:58;;;;;;;11.07;4.57;;;;;;;17.34;78.53;99729.16;5032760;28;20053;-89
2022/06/09 10:25:31;;;;;;;8.73;4.40;;;;;;;17.33;78.24;99720.22;5027739;28;20227;-90
2022/06/09 10:28:09;;;;;;;8.50;4.07;;;;;;;17.35;78.14;99717.31;4998821;28;20029;-89
2022/06/09 10:30:51;;;;;;;9.18;4.43;;;;;;;17.39;78.35;99719.47;5028127;28;20029;-89
2022/06/09 10:33:44;;;;;;;6.90;3.80;;;;;;;17.41;77.62;99732.78;5030228;28;20021;-87
2022/06/09 10:36:26;;;;;;;7.82;4.20;;;;;;;17.38;77.59;99730.47;5033019;28;20061;-87
2022/06/09 10:38:55;;;;;;;7.90;3.67;;;;;;;17.38;77.86;99733.16;5014930;28;20364;-87
2022/06/09 10:41:36;;;;;;;6.65;3.72;;;;;;;17.36;77.61;99736.06;5013128;28;20415;-89
2022/06/09 10:44:11;;;;;;;7.72;4.07;;;;;;;17.38;76.80;99738.56;5013421;28;20026;-89
2022/06/09 10:55:49;;;;;;;8.77;3.50;;;;;;;17.53;78.01;99742.97;5018133;28;20109;-89
2022/06/09 10:58:27;;;;;;;6.90;3.42;;;;;;;17.55;77.07;99749.03;5033110;28;20037;-89
2022/06/09 11:00:52;;;;;;;8.05;3.92;;;;;;;17.55;77.00;99748.19;5016752;28;20026;-90
2022/06/09 11:03:24;;;;;;;8.27;4.10;;;;;;;17.54;75.47;99755.47;5032319;28;20056;-90
2022/06/09 11:06:07;;;;;;;6.60;3.53;;;;;;;17.58;76.66;99750.50;5049278;28;20113;-91
2022/06/09 11:08:54;;;;;;;6.20;3.40;;;;;;;17.60;76.57;99749.28;5036956;28;20029;-91
2022/06/09 11:11:36;;;;;;;6.80;3.08;;;;;;;17.62;76.43;99754.53;5055675;28;20056;-90
2022/06/09 11:14:13;;;;;;;7.30;3.90;;;;;;;17.64;77.22;99752.47;5056587;28;20053;-90
2022/06/09 11:16:48;;;;;;;9.20;3.65;;;;;;;17.66;76.26;99754.97;5022104;28;20045;-90
2022/06/09 11:19:30;;;;;;;8.32;3.67;;;;;;;17.62;76.18;99757.22;5024704;28;20034;-93
2022/06/09 11:22:02;;;;;;;6.40;3.20;;;;;;;17.65;75.84;99753.31;5037676;28;20029;-93
2022/06/09 11:24:34;;;;;;;10.20;4.10;;;;;;;17.67;76.46;99751.28;5019127;28;20438;-93
2022/06/09 11:27:38;;;;;;;7.93;3.90;;;;;;;17.66;76.14;99750.41;5034280;28;20071;-91
2022/06/09 11:30:20;;;;;;;8.93;3.35;;;;;;;17.68;76.11;99750.25;5029514;28;20026;-90
2022/06/09 11:33:25;;;;;;;10.35;3.80;;;;;;;17.72;75.25;99748.84;5029725;28;20030;-90
2022/06/09 11:36:15;;;;;;;5.93;3.17;;;;;;;17.78;75.53;99753.50;5028766;28;20052;-86
2022/06/09 11:39:09;;;;;;;8.55;3.40;;;;;;;17.79;75.19;99769.53;5015507;28;20037;-89
2022/06/09 11:41:51;;;;;;;6.45;3.13;;;;;;;17.85;76.11;99763.38;5047026;28;20026;-87
2022/06/09 11:44:32;;;;;;;6.18;3.00;;;;;;;17.88;76.39;99757.56;5013982;28;20034;-87
2022/06/09 11:47:03;;;;;;;7.25;3.30;;;;;;;17.88;75.70;99765.69;5026741;28;20034;-86
2022/06/09 11:49:39;;;;;;;5.13;2.90;;;;;;;17.91;76.07;99761.75;5029281;28;20037;-90
2022/06/09 11:52:13;;;;;;;5.85;2.65;;;;;;;17.94;75.59;99770.34;5013456;28;20041;-88
2022/06/09 11:54:43;;;;;;;6.88;2.60;;;;;;;17.98;75.67;99775.41;5013284;28;20034;-89
2022/06/09 11:57:25;;;;;;;6.80;2.70;;;;;;;18.04;73.90;99778.19;5043048;28;20030;-89
2022/06/09 11:59:58;;;;;;;6.47;2.38;;;;;;;18.09;73.12;99777.59;5013696;28;20083;-87
2022/06/09 12:02:39;;;;;;;5.28;2.38;;;;;;;18.14;73.51;99777.88;5030054;28;20036;-87
2022/06/09 12:05:20;;;;;;;3.78;2.30;;;;;;;18.15;73.63;99784.97;5043502;28;20049;-87
2022/06/09 12:08:12;;;;;;;5.43;2.28;;;;;;;18.12;74.27;99797.00;5028009;28;20457;-88
2022/06/09 12:10:51;;;;;;;3.42;1.52;;;;;;;18.04;70.52;99823.34;5012694;28;20033;-87
2022/06/09 12:13:16;;;;;;;1.70;0.90;;;;;;;17.54;67.21;99838.44;5028367;28;20110;-87
2022/06/09 12:15:49;;;;;;;1.90;0.90;;;;;;;17.04;66.50;99849.91;5041729;28;20120;-86
2022/06/09 12:18:16;;;;;;;1.38;1.20;;;;;;;16.72;68.08;99853.69;5038105;28;20594;-89
2022/06/09 12:20:55;;;;;;;1.88;1.10;;;;;;;16.63;69.48;99859.13;5049091;28;20021;-88